Time;durP1;ratioP1;P1;durP2;ratioP2;P2;SDS_P1;SDS_P2;PMS_P1;PMS_P2;Temp;Humidity;BMP_temperature;BMP_pressure;BME280_temperature;BME280_humidity;BME280_pressure;Samples;Min_cycle;Max_cycle;Signal;HPM_P1;HPM_P2
2022/01/06 00:03:27;;;;;;;;;;;;;;;;;;;;;
2022/01/06 00:08:59;;;;;;;20.40;3.63;;;;;;;-2.32;100.00;100446.13;9851365;29;20043;-93
2022/01/06 00:26:13;;;;;;;17.17;3.57;;;;;;;-3.51;100.00;100480.44;9851946;29;20062;-93
2022/01/06 00:31:22;;;;;;;14.83;3.23;;;;;;;-2.44;100.00;100485.31;9889520;29;20100;-92
2022/01/06 00:36:48;;;;;;;21.58;3.50;;;;;;;-3.42;100.00;100292.03;9872244;29;20044;-90
2022/01/06 00:42:18;;;;;;;25.93;4.33;;;;;;;-3.76;100.00;100331.72;9889391;29;20043;-94
2022/01/06 00:47:27;;;;;;;19.43;2.90;;;;;;;-1.49;100.00;100732.41;9886097;29;20062;-90
2022/01/06 00:52:50;;;;;;;;;;;;;;;;;;;;;
2022/01/06 00:58:09;;;;;;;18.77;2.75;;;;;;;-5.20;100.00;100318.13;9872622;29;20051;-93
2022/01/06 01:03:33;;;;;;;19.43;3.00;;;;;;;-0.54;100.00;100833.84;9885018;29;20420;-93
2022/01/06 01:08:38;;;;;;;14.53;2.17;;;;;;;-2.98;100.00;100676.53;9897742;29;20050;-90
2022/01/06 01:14:17;;;;;;;21.83;3.83;;;;;;;1.59;100.00;101411.81;9886184;29;20069;-90
2022/01/06 01:19:49;;;;;;;;;;;;;;;;;;;;;
2022/01/06 01:25:15;;;;;;;9.97;2.33;;;;;;;-5.07;100.00;100174.34;9869382;29;20053;-93
2022/01/06 01:30:28;;;;;;;;;;;;;;;;;;;;;
2022/01/06 01:35:33;;;;;;;25.37;2.93;;;;;;;-3.01;100.00;100839.34;9869778;29;20077;-90
2022/01/06 01:40:50;;;;;;;11.43;2.90;;;;;;;-2.74;100.00;100781.59;9845345;30;20044;-90
2022/01/06 01:46:19;;;;;;;21.80;3.83;;;;;;;-5.79;100.00;100426.19;9832158;30;20101;-90
2022/01/06 01:51:32;;;;;;;15.73;3.70;;;;;;;-1.04;100.00;101058.50;9830811;30;20501;-90
2022/01/06 01:56:39;;;;;;;22.93;4.60;;;;;;;-6.42;100.00;100413.09;9839688;29;20142;-90
2022/01/06 02:01:42;;;;;;;;;;;;;;;0.21;100.00;101298.66;9867080;29;20421;-90
2022/01/06 02:06:58;;;;;;;;;;;;;;;;;;;;;
2022/01/06 02:12:11;;;;;;;30.00;10.57;;;;;;;-5.14;100.00;100755.81;9885252;29;20108;-92
2022/01/06 02:17:14;;;;;;;39.80;9.60;;;;;;;-5.59;100.00;100635.19;9868471;29;20031;-92
2022/01/06 02:22:24;;;;;;;28.63;7.33;;;;;;;-3.40;100.00;101024.81;9866702;29;20401;-92
2022/01/06 02:27:30;;;;;;;33.27;8.97;;;;;;;-4.48;100.00;100996.25;9866561;29;20088;-93
2022/01/06 02:33:01;;;;;;;24.60;4.63;;;;;;;-4.98;100.00;100614.63;9870556;29;20083;-92
2022/01/06 02:38:06;;;;;;;19.63;2.73;;;;;;;-5.55;100.00;100521.22;9864918;29;20038;-91
2022/01/06 02:43:39;;;;;;;19.30;4.30;;;;;;;-7.01;100.00;100396.69;9845199;29;20040;-89
2022/01/06 02:49:00;;;;;;;21.63;2.93;;;;;;;-4.40;100.00;100734.81;9846310;29;20067;-90
2022/01/06 02:54:08;;;;;;;6.53;0.97;;;;;;;-7.57;100.00;100284.44;9852054;29;20063;-93
2022/01/06 02:59:11;;;;;;;5.53;0.90;;;;;;;-4.46;100.00;100735.47;9866822;29;20062;-93
2022/01/06 03:04:31;;;;;;;8.00;2.10;;;;;;;-1.26;100.00;101121.38;9852790;29;20067;-89
2022/01/06 03:09:39;;;;;;;10.80;1.60;;;;;;;-1.38;100.00;101292.91;9862942;29;20557;-89
2022/01/06 03:14:45;;;;;;;10.87;2.73;;;;;;;0.14;100.00;101488.00;9862883;29;20196;-93
2022/01/06 03:19:48;;;;;;;9.33;2.10;;;;;;;-2.55;100.00;101289.84;9865327;29;20409;-93
2022/01/06 03:25:12;;;;;;;6.40;1.50;;;;;;;-4.40;100.00;100873.69;9872336;29;20048;-93
2022/01/06 03:30:17;;;;;;;5.77;0.87;;;;;;;-2.60;100.00;101218.53;9865732;29;20054;-93
2022/01/06 03:35:19;;;;;;;36.20;9.07;;;;;;;-5.34;100.00;100912.59;9865055;29;20119;-93
2022/01/06 03:40:23;;;;;;;30.85;10.65;;;;;;;-3.18;100.00;101215.47;9866434;29;20043;-94
2022/01/06 03:45:23;;;;;;;23.83;8.63;;;;;;;-4.89;100.00;100740.72;9867115;29;20043;-93
2022/01/06 03:50:24;;;;;;;70.77;29.43;;;;;;;-7.63;100.00;100365.25;9876348;29;20055;-93
2022/01/06 03:55:25;;;;;;;64.03;25.40;;;;;;;-1.38;100.00;101431.50;9875403;29;20560;-88
2022/01/06 04:00:25;;;;;;;71.23;28.70;;;;;;;-0.79;100.00;101615.34;9873729;29;20050;-89
2022/01/06 04:05:26;;;;;;;32.63;12.30;;;;;;;-4.80;100.00;100883.13;9875849;29;20074;-94
2022/01/06 04:10:30;;;;;;;17.77;6.17;;;;;;;-5.12;100.00;100960.50;9861875;29;20043;-94
2022/01/06 04:15:30;;;;;;;17.87;4.63;;;;;;;-5.68;100.00;100824.69;9876188;29;20045;-93
2022/01/06 04:20:31;;;;;;;6.97;1.60;;;;;;;-5.54;100.00;100920.75;9876381;29;20039;-94
2022/01/06 04:25:39;;;;;;;9.53;1.30;;;;;;;-5.44;100.00;100700.69;9861899;29;20139;-94
2022/01/06 04:30:39;;;;;;;9.30;1.60;;;;;;;-9.05;100.00;100191.06;9875446;29;20055;-88
2022/01/06 04:35:40;;;;;;;8.40;1.80;;;;;;;-3.15;100.00;101355.19;9872956;29;20096;-89
2022/01/06 04:40:48;;;;;;;4.20;1.10;;;;;;;-8.18;100.00;100407.97;9872225;29;20100;-88
2022/01/06 04:45:48;;;;;;;4.80;1.40;;;;;;;-6.73;100.00;100636.53;9873321;29;20489;-88
2022/01/06 04:50:51;;;;;;;10.37;1.60;;;;;;;-1.18;100.00;101788.72;9888031;29;20103;-88
2022/01/06 04:55:57;;;;;;;10.93;1.90;;;;;;;-4.30;100.00;101272.28;9894618;29;20042;-93
2022/01/06 05:00:58;;;;;;;7.27;1.80;;;;;;;-7.65;100.00;100666.63;9913028;29;20046;-93
2022/01/06 05:06:01;;;;;;;13.17;1.93;;;;;;;-9.01;100.00;100388.94;9892183;29;20137;-94
2022/01/06 05:11:01;;;;;;;15.27;3.73;;;;;;;-2.10;100.00;101571.19;9882514;29;20070;-88
2022/01/06 05:16:04;;;;;;;13.17;2.30;;;;;;;-6.41;100.00;100873.66;9881738;29;20066;-88
2022/01/06 05:21:06;;;;;;;15.33;2.47;;;;;;;-7.21;100.00;100723.19;9882230;29;20059;-88
2022/01/06 05:26:06;;;;;;;18.20;3.27;;;;;;;-5.99;100.00;101063.59;9895722;29;20074;-88
2022/01/06 05:31:10;;;;;;;18.53;4.80;;;;;;;-7.89;100.00;100508.56;9880533;29;20139;-88
2022/01/06 05:36:13;;;;;;;12.30;3.03;;;;;;;-6.01;100.00;100883.28;9884547;29;20035;-94
2022/01/06 05:41:13;;;;;;;15.90;4.20;;;;;;;-6.15;100.00;101004.34;9887690;29;20130;-88
2022/01/06 05:46:15;;;;;;;16.97;4.10;;;;;;;-7.23;100.00;100767.94;9880116;29;20039;-88
2022/01/06 05:51:16;;;;;;;23.03;4.10;;;;;;;-6.19;100.00;100976.16;9884794;29;20067;-93
2022/01/06 05:56:17;;;;;;;30.43;6.33;;;;;;;-6.03;100.00;101040.75;9872929;29;20070;-93
2022/01/06 06:01:18;;;;;;;29.80;7.80;;;;;;;-5.97;100.00;100873.13;9885516;29;20511;-93
2022/01/06 06:06:18;;;;;;;20.97;4.43;;;;;;;-7.80;100.00;100647.50;9886227;29;20048;-92
2022/01/06 06:11:19;;;;;;;24.53;4.17;;;;;;;-3.30;100.00;101376.41;9881353;29;20493;-92
2022/01/06 06:16:19;;;;;;;17.57;3.17;;;;;;;-6.54;100.00;100816.88;9882402;29;20042;-93
2022/01/06 06:21:20;;;;;;;16.03;3.87;;;;;;;-6.19;100.00;100934.09;9880986;29;20138;-93
2022/01/06 06:26:23;;;;;;;33.53;13.03;;;;;;;-7.89;100.00;100615.44;9867175;29;20516;-93
2022/01/06 06:31:23;;;;;;;71.63;34.10;;;;;;;-6.33;100.00;100997.00;9866745;29;20050;-89
2022/01/06 06:36:27;;;;;;;54.67;23.03;;;;;;;-4.30;100.00;101308.09;9879544;29;20069;-92
2022/01/06 06:41:27;;;;;;;28.57;12.17;;;;;;;-10.58;100.00;100370.81;9866303;29;20139;-92
2022/01/06 06:46:28;;;;;;;26.17;9.37;;;;;;;-6.11;100.00;101178.13;9880526;29;20035;-92
2022/01/06 06:51:29;;;;;;;22.97;7.60;;;;;;;-6.43;100.00;100885.50;9879219;29;20131;-90
2022/01/06 06:56:32;;;;;;;24.07;7.90;;;;;;;-4.84;100.00;101121.59;9878771;29;20047;-90
2022/01/06 07:01:44;;;;;;;32.00;7.90;;;;;;;-5.62;100.00;101215.69;9865965;29;20211;-89
2022/01/06 07:06:45;;;;;;;28.42;6.43;;;;;;;-6.27;100.00;101112.66;9850968;29;20046;-92
2022/01/06 07:11:57;;;;;;;23.43;7.03;;;;;;;-10.38;100.00;100380.56;9867605;29;20039;-94
2022/01/06 07:17:51;;;;;;;27.33;5.50;;;;;;;-10.17;100.00;100249.22;9871604;29;20039;-91
2022/01/06 07:30:12;;;;;;;;;;;;;;;;;;;;;
2022/01/06 07:43:36;;;;;;;;;;;;;;;;;;;;;
2022/01/06 07:49:51;;;;;;;;;;;;;;;;;;;;;
2022/01/06 08:02:02;;;;;;;;;;;;;;;;;;;;;
2022/01/06 08:13:37;;;;;;;34.50;7.77;;;;;;;-8.17;100.00;100711.44;9702153;30;20065;-90
2022/01/06 08:19:26;;;;;;;;;;;;;;;;;;;;;
2022/01/06 08:31:32;;;;;;;40.47;8.70;;;;;;;-8.83;100.00;100618.53;9929674;29;20047;-94
2022/01/06 08:43:00;;;;;;;36.23;10.47;;;;;;;-6.58;100.00;101064.53;9919340;30;20031;-89
2022/01/06 08:48:08;;;;;;;35.33;7.53;;;;;;;-5.84;100.00;101332.09;9870322;29;20497;-88
2022/01/06 08:53:19;;;;;;;36.03;9.37;;;;;;;-7.95;100.00;100860.81;9857740;29;20108;-90
2022/01/06 08:58:29;;;;;;;34.00;8.10;;;;;;;-8.38;100.00;100640.25;9871686;29;20433;-89
2022/01/06 09:03:32;;;;;;;32.40;8.40;;;;;;;-6.42;100.00;101062.16;9865318;29;20055;-89
2022/01/06 09:08:32;;;;;;;34.10;8.10;;;;;;;-7.42;100.00;100848.16;9843202;30;20051;-87
2022/01/06 09:13:33;;;;;;;32.73;7.07;;;;;;;-3.51;100.00;101519.34;9851962;29;20043;-89
2022/01/06 09:18:35;;;;;;;36.50;6.43;;;;;;;-4.10;100.00;101440.59;9881048;29;20039;-88
2022/01/06 09:23:36;;;;;;;28.80;5.97;;;;;;;-7.97;100.00;100706.97;9865857;29;20040;-89
2022/01/06 09:28:36;;;;;;;25.07;6.73;;;;;;;-6.22;100.00;101131.84;9865817;29;20126;-88
2022/01/06 09:33:37;;;;;;;28.87;7.00;;;;;;;-7.56;100.00;100643.56;9868998;29;20067;-94
2022/01/06 09:38:38;;;;;;;24.67;7.33;;;;;;;-6.84;100.00;100960.66;9872110;29;20039;-94
2022/01/06 09:43:40;;;;;;;39.73;8.80;;;;;;;-6.91;100.00;101023.72;9874524;29;20126;-93
2022/01/06 09:48:42;;;;;;;28.50;6.10;;;;;;;-6.22;100.00;101030.00;9882488;29;20039;-96
2022/01/06 09:53:48;;;;;;;28.13;7.17;;;;;;;-4.41;100.00;101371.91;9886298;29;20051;-94
2022/01/06 09:58:49;;;;;;;39.83;6.87;;;;;;;-2.10;100.00;101587.41;9868493;29;20501;-92
2022/01/06 10:03:52;;;;;;;26.43;5.57;;;;;;;-1.40;100.00;101710.88;9866682;29;20044;-93
2022/01/06 10:08:55;;;;;;;36.47;6.97;;;;;;;-5.12;100.00;101132.31;9865279;29;20051;-95
2022/01/06 10:13:58;;;;;;;25.37;6.43;;;;;;;-0.34;100.00;101783.78;9842729;30;20079;-89
2022/01/06 10:19:03;;;;;;;39.23;13.93;;;;;;;-0.25;100.00;101791.81;9843626;30;20043;-89
2022/01/06 10:24:10;;;;;;;45.63;20.90;;;;;;;-3.38;100.00;101248.94;9842288;30;20605;-89
2022/01/06 10:29:10;;;;;;;;;;;;;;;-0.01;100.00;101782.09;9828058;30;20293;-88
2022/01/06 10:34:11;;;;;;;20.83;7.03;;;;;;;-0.76;100.00;101761.03;9827056;30;19917;-87
2022/01/06 10:39:11;;;;;;;31.97;6.17;;;;;;;-3.65;100.00;101301.84;9852788;29;20050;-88
2022/01/06 10:44:13;;;;;;;24.53;4.53;;;;;;;-2.19;100.00;101367.09;9864494;29;20077;-92
2022/01/06 10:49:16;;;;;;;23.67;5.07;;;;;;;-4.29;100.00;101204.94;9866423;29;20574;-93
2022/01/06 10:54:22;;;;;;;19.77;4.33;;;;;;;-0.98;100.00;101621.00;9865299;29;20146;-89
2022/01/06 10:59:26;;;;;;;21.65;5.07;;;;;;;-4.96;100.00;100827.41;9879136;29;20051;-89
2022/01/06 11:04:28;;;;;;;26.60;5.60;;;;;;;-3.73;100.00;101156.44;9864934;29;20047;-90
2022/01/06 11:09:31;;;;;;;21.47;3.83;;;;;;;-0.06;100.00;101639.13;9865153;29;20089;-91
2022/01/06 11:14:57;;;;;;;33.10;4.50;;;;;;;-0.49;100.00;101416.50;9854594;30;20047;-93
2022/01/06 11:20:19;;;;;;;;;;;;;;;;;;;;;
2022/01/06 11:25:44;;;;;;;30.57;4.77;;;;;;;-4.32;100.00;100794.00;9838715;30;20048;-93
2022/01/06 11:30:50;;;;;;;21.52;4.20;;;;;;;-3.89;100.00;101046.84;9842425;30;20050;-93
2022/01/06 11:35:55;;;;;;;23.87;3.53;;;;;;;-4.98;100.00;100658.44;9842161;30;20103;-91
2022/01/06 11:41:11;;;;;;;30.75;4.93;;;;;;;-2.11;100.00;101295.19;9868906;29;20074;-89
2022/01/06 11:46:12;;;;;;;22.50;3.95;;;;;;;1.15;100.00;101660.09;9846914;29;20078;-90
2022/01/06 11:51:32;;;;;;;15.90;3.97;;;;;;;0.97;100.00;101424.44;9861503;29;20130;-87
2022/01/06 11:56:33;;;;;;;14.97;4.50;;;;;;;-2.64;100.00;100879.28;9877271;29;20046;-93
2022/01/06 12:01:47;;;;;;;19.35;2.95;;;;;;;-2.41;100.00;100797.72;9863863;29;20043;-93
2022/01/06 12:06:47;;;;;;;26.17;6.32;;;;;;;-3.21;100.00;100671.84;9866260;29;20047;-93
2022/01/06 12:12:00;;;;;;;17.88;3.50;;;;;;;-0.85;100.00;101178.06;9870809;29;20047;-94
2022/01/06 12:17:08;;;;;;;26.25;4.75;;;;;;;-1.81;100.00;100889.97;9869661;29;20497;-94
2022/01/06 12:22:10;;;;;;;19.55;3.90;;;;;;;-1.76;100.00;101071.13;9870145;29;20047;-89
2022/01/06 12:27:10;;;;;;;20.98;4.10;;;;;;;2.86;100.00;101787.16;9870061;29;20047;-89
2022/01/06 12:32:12;;;;;;;22.10;4.50;;;;;;;-0.24;100.00;101268.50;9868988;29;20103;-94
2022/01/06 12:37:12;;;;;;;21.73;3.85;;;;;;;-2.26;100.00;100887.66;9869895;29;20055;-95
2022/01/06 12:42:13;;;;;;;13.73;3.13;;;;;;;-0.80;100.00;101082.94;9872625;29;20035;-90
2022/01/06 12:47:21;;;;;;;26.95;3.95;;;;;;;-0.07;100.00;101184.56;9869716;29;20035;-92
2022/01/06 12:52:24;;;;;;;17.38;3.22;;;;;;;1.51;100.00;101344.03;9807785;30;20466;-90
2022/01/06 12:57:24;;;;;;;22.15;5.95;;;;;;;0.73;100.00;101161.69;9792916;30;20070;-91
2022/01/06 13:02:25;;;;;;;17.55;3.72;;;;;;;3.04;100.00;101416.88;9807740;30;20524;-93
2022/01/06 13:07:25;;;;;;;22.38;4.40;;;;;;;5.71;100.00;101774.56;9746822;30;20052;-90
2022/01/06 13:12:26;;;;;;;15.25;3.08;;;;;;;2.00;100.00;101154.28;9770095;30;20169;-94
2022/01/06 13:17:32;;;;;;;13.82;2.65;;;;;;;2.65;100.00;101177.97;9770933;30;20043;-90
2022/01/06 13:28:05;;;;;;;11.98;2.00;;;;;;;3.51;100.00;101145.97;9883905;29;20044;-94
2022/01/06 13:33:10;;;;;;;23.17;4.47;;;;;;;5.75;100.00;101469.84;9859711;30;20448;-93
2022/01/06 13:38:24;;;;;;;15.07;2.65;;;;;;;7.07;100.00;101565.78;9866142;29;20130;-88
2022/01/06 13:43:26;;;;;;;22.10;2.90;;;;;;;5.89;100.00;101541.75;9865353;29;20055;-87
2022/01/06 13:53:29;;;;;;;23.38;2.30;;;;;;;2.37;100.00;101273.84;9895637;29;20059;-93
2022/01/06 13:58:35;;;;;;;16.98;3.55;;;;;;;0.02;100.00;100982.34;9881880;29;20058;-89
2022/01/06 14:03:36;;;;;;;21.67;3.83;;;;;;;0.37;100.00;101259.78;9888315;29;20038;-93
2022/01/06 14:08:40;;;;;;;11.38;2.47;;;;;;;-0.04;100.00;101094.91;9866910;29;20039;-94
2022/01/06 14:13:44;;;;;;;16.88;2.50;;;;;;;2.55;100.00;101634.97;9895871;29;20043;-94
2022/01/06 14:18:45;;;;;;;16.27;3.20;;;;;;;-0.76;100.00;100958.06;9866246;29;20039;-93
2022/01/06 14:23:48;;;;;;;20.42;3.20;;;;;;;-0.70;100.00;101141.19;9867846;29;20047;-92
2022/01/06 14:28:48;;;;;;;14.13;2.38;;;;;;;1.11;100.00;101458.06;9865032;29;20047;-88
2022/01/06 14:33:51;;;;;;;14.02;2.70;;;;;;;-0.38;100.00;101123.16;9880525;29;20477;-94
2022/01/06 14:38:51;;;;;;;24.17;3.00;;;;;;;-1.07;100.00;100969.69;9866393;29;20497;-92
2022/01/06 14:43:52;;;;;;;12.25;3.33;;;;;;;-1.20;100.00;101033.41;9864439;29;20150;-89
2022/01/06 14:48:52;;;;;;;20.88;3.40;;;;;;;-0.21;100.00;101259.19;9878876;29;20127;-93
2022/01/06 14:53:53;;;;;;;20.30;3.47;;;;;;;1.32;100.00;101609.38;9865166;29;20489;-92
2022/01/06 14:58:54;;;;;;;14.93;3.80;;;;;;;-0.63;100.00;101171.09;9865069;29;20047;-94
2022/01/06 15:03:54;;;;;;;8.57;2.00;;;;;;;-1.22;100.00;101187.53;9864387;29;20486;-91
2022/01/06 15:08:55;;;;;;;14.13;2.33;;;;;;;-4.35;100.00;100533.59;9864033;29;20505;-92
2022/01/06 15:13:55;;;;;;;13.35;2.15;;;;;;;-0.11;100.00;101305.84;9864627;29;20059;-92
2022/01/06 15:18:56;;;;;;;17.92;3.40;;;;;;;-1.95;100.00;101040.75;9860524;29;20071;-92
2022/01/06 15:23:57;;;;;;;17.38;3.42;;;;;;;-1.63;100.00;101247.78;9850352;29;20131;-91
2022/01/06 15:28:57;;;;;;;13.00;3.17;;;;;;;-5.85;100.00;100450.13;9863801;29;20131;-90
2022/01/06 15:33:58;;;;;;;12.13;3.03;;;;;;;-2.48;100.00;101234.31;9863594;29;20536;-90
2022/01/06 15:38:59;;;;;;;16.27;2.97;;;;;;;-2.81;100.00;101157.81;9863809;29;20126;-91
2022/01/06 15:44:00;;;;;;;18.07;3.00;;;;;;;-2.92;100.00;101238.91;9864184;29;20055;-93
2022/01/06 15:49:01;;;;;;;10.95;1.83;;;;;;;-6.18;100.00;100696.44;9865165;29;20046;-90
2022/01/06 15:54:03;;;;;;;14.53;2.97;;;;;;;-7.00;100.00;100545.53;9866754;29;20051;-92
2022/01/06 15:59:04;;;;;;;17.53;3.00;;;;;;;-3.19;100.00;101078.28;9864628;29;20056;-90
2022/01/06 16:09:28;;;;;;;16.98;4.03;;;;;;;-1.87;100.00;101388.88;9868316;29;20047;-90
2022/01/06 16:14:28;;;;;;;21.37;4.20;;;;;;;-3.17;100.00;101112.13;9878564;29;20127;-90
2022/01/06 16:19:31;;;;;;;26.53;4.30;;;;;;;-3.51;100.00;101193.66;9863521;29;20134;-93
2022/01/06 16:24:32;;;;;;;20.67;4.50;;;;;;;-4.77;100.00;101047.50;9864644;29;20039;-90
2022/01/06 16:29:35;;;;;;;23.50;4.70;;;;;;;-3.55;100.00;101105.31;9863876;29;20138;-90
2022/01/06 16:34:51;;;;;;;;;;;;;;;;;;;;;
2022/01/06 16:39:52;;;;;;;26.80;4.80;;;;;;;-3.16;100.00;101208.09;9865667;29;20047;-89
2022/01/06 16:44:53;;;;;;;18.30;4.60;;;;;;;-1.80;100.00;101323.47;9848314;29;20085;-92
2022/01/06 16:50:02;;;;;;;26.00;5.13;;;;;;;-4.80;100.00;101012.88;9847925;29;20147;-91
2022/01/06 16:55:26;;;;;;;20.37;4.27;;;;;;;-2.61;100.00;101268.09;9873308;29;20092;-92
2022/01/06 17:00:29;;;;;;;;;;;;;;;1.14;100.00;101690.13;9881990;29;20066;-92
2022/01/06 17:05:30;;;;;;;26.10;4.85;;;;;;;-3.79;100.00;101087.13;9868932;29;20016;-92
2022/01/06 17:10:36;;;;;;;14.00;3.78;;;;;;;-0.28;100.00;101694.69;9854742;29;20180;-93
2022/01/06 17:16:03;;;;;;;12.43;2.10;;;;;;;-6.37;100.00;100486.63;9864912;29;20092;-89
2022/01/06 17:21:07;;;;;;;16.50;4.17;;;;;;;-2.90;100.00;101078.75;9854062;29;20126;-93
2022/01/06 17:26:20;;;;;;;18.65;3.55;;;;;;;-3.75;100.00;101024.75;9857853;29;20043;-94
2022/01/06 17:31:23;;;;;;;22.23;3.57;;;;;;;-3.67;100.00;100992.53;9868745;29;20042;-89
2022/01/06 17:36:26;;;;;;;19.05;5.28;;;;;;;-4.36;100.00;100884.00;9853653;29;20031;-92
2022/01/06 17:41:27;;;;;;;18.40;4.38;;;;;;;-6.39;100.00;100514.56;9854043;29;20501;-93
2022/01/06 17:46:27;;;;;;;20.50;4.75;;;;;;;-3.07;100.00;100999.75;9853268;29;20142;-90
2022/01/06 17:51:28;;;;;;;19.88;4.80;;;;;;;-2.41;100.00;101172.50;9867035;29;20087;-88
2022/01/06 17:56:29;;;;;;;18.63;5.20;;;;;;;-5.18;100.00;100711.47;9852618;29;20050;-89
2022/01/06 18:01:31;;;;;;;21.77;5.20;;;;;;;-1.44;100.00;101351.97;9881724;29;20485;-89
2022/01/06 18:06:37;;;;;;;20.02;5.07;;;;;;;-2.65;100.00;101038.44;9866795;29;20516;-93
2022/01/06 18:11:49;;;;;;;16.23;4.28;;;;;;;-5.15;100.00;100525.94;9881208;29;20605;-93
2022/01/06 18:16:54;;;;;;;18.70;4.37;;;;;;;-4.44;100.00;100754.94;9854577;29;20096;-93
2022/01/06 18:21:55;;;;;;;16.45;4.68;;;;;;;1.93;100.00;101899.31;9867377;29;20039;-88
2022/01/06 18:27:21;;;;;;;16.85;4.00;;;;;;;-4.31;100.00;100749.13;9881124;29;20514;-91
2022/01/06 18:32:43;;;;;;;17.17;4.53;;;;;;;1.85;100.00;101611.50;9866812;29;20096;-90
2022/01/06 18:37:46;;;;;;;14.83;4.47;;;;;;;1.79;100.00;101667.38;9867115;29;20063;-92
2022/01/06 18:42:50;;;;;;;17.23;4.27;;;;;;;-3.66;100.00;100909.94;9865151;29;20047;-87
2022/01/06 18:47:51;;;;;;;21.70;5.87;;;;;;;-1.76;100.00;101230.38;9894552;29;20138;-94
2022/01/06 18:52:55;;;;;;;16.83;4.70;;;;;;;-4.21;100.00;100824.28;9879630;29;20149;-89
2022/01/06 18:58:08;;;;;;;19.27;5.55;;;;;;;-5.60;100.00;100623.63;9851543;29;20040;-95
2022/01/06 19:03:25;;;;;;;20.47;6.33;;;;;;;-1.76;100.00;101071.13;9856834;29;20036;-91
2022/01/06 19:08:28;;;;;;;19.58;6.93;;;;;;;-3.06;100.00;101058.00;9865711;29;20050;-89
2022/01/06 19:13:32;;;;;;;21.77;8.20;;;;;;;-0.93;100.00;101351.06;9865165;29;20043;-92
2022/01/06 19:18:36;;;;;;;28.95;7.85;;;;;;;-3.19;100.00;100943.66;9850855;29;20043;-89
2022/01/06 19:23:44;;;;;;;19.40;7.20;;;;;;;-0.10;100.00;101496.19;9866011;29;20046;-89
2022/01/06 19:28:45;;;;;;;23.93;7.27;;;;;;;-4.08;100.00;100674.13;9893465;29;20047;-94
2022/01/06 19:33:48;;;;;;;17.27;7.00;;;;;;;-6.56;100.00;100193.06;9849540;29;20485;-92
2022/01/06 19:39:01;;;;;;;;;;;;;;;;;;;;;
2022/01/06 19:44:05;;;;;;;21.00;7.40;;;;;;;-1.44;100.00;101281.75;9873986;29;20123;-90
2022/01/06 19:49:10;;;;;;;26.07;11.27;;;;;;;-3.13;100.00;100884.59;9841877;30;20516;-90
2022/01/06 19:54:11;;;;;;;20.10;9.10;;;;;;;-3.94;100.00;100665.41;9841485;30;20544;-94
2022/01/06 19:59:21;;;;;;;27.80;12.50;;;;;;;0.02;100.00;101310.72;9826861;30;20047;-94
2022/01/06 20:04:47;;;;;;;29.33;10.73;;;;;;;-3.69;100.00;100795.44;9845589;30;20044;-94
2022/01/06 20:09:48;;;;;;;30.27;11.63;;;;;;;0.05;100.00;101374.50;9841727;30;20153;-88
2022/01/06 20:15:02;;;;;;;28.73;10.73;;;;;;;-4.01;100.00;100793.47;9856312;30;20035;-95
2022/01/06 20:20:17;;;;;;;28.27;10.10;;;;;;;-2.27;100.00;100912.97;9827851;30;20452;-94
2022/01/06 20:25:26;;;;;;;26.77;10.15;;;;;;;-6.19;100.00;100319.66;9840469;30;20043;-91
2022/01/06 20:30:49;;;;;;;30.43;13.23;;;;;;;-0.04;100.00;101354.75;9853612;30;20047;-88
2022/01/06 20:36:18;;;;;;;;;;;;;;;;;;;;;
2022/01/06 20:42:03;;;;;;;39.57;16.83;;;;;;;-5.92;100.00;100477.56;9840231;30;20058;-93
2022/01/06 20:53:33;;;;;;;34.13;15.70;;;;;;;-4.24;100.00;100470.59;9841464;30;20126;-90
2022/01/06 20:59:18;;;;;;;;;;;;;;;;;;;;;
2022/01/06 21:05:24;;;;;;;;;;;;;;;;;;;;;
2022/01/06 21:11:34;;;;;;;;;;;;;;;;;;;;;
2022/01/06 21:17:17;;;;;;;36.30;15.97;;;;;;;-5.27;100.00;100511.16;9821087;30;20043;-90
2022/01/06 21:23:26;;;;;;;;;;;;;;;;;;;;;
2022/01/06 21:28:49;;;;;;;26.20;12.57;;;;;;;-3.91;100.00;100556.66;9741177;30;20465;-95
2022/01/06 21:34:20;;;;;;;;;;;;;;;;;;;;;
2022/01/06 21:39:54;;;;;;;;;;;;;;;;;;;;;
2022/01/06 21:45:57;;;;;;;;;;;;;;;;;;;;;
2022/01/06 21:51:57;;;;;;;;;;;;;;;;;;;;;
2022/01/06 21:57:23;;;;;;;22.10;11.70;;;;;;;-0.07;100.00;101345.09;9787126;30;20049;-94
2022/01/06 22:02:24;;;;;;;33.90;11.82;;;;;;;-1.04;100.00;101061.22;9773279;30;20055;-94
2022/01/06 22:07:39;;;;;;;;;;;;;;;;;;;;;
2022/01/06 22:13:13;;;;;;;23.57;10.10;;;;;;;-2.97;100.00;100780.59;9797911;30;20063;-90
2022/01/06 22:18:43;;;;;;;26.87;9.33;;;;;;;1.54;100.00;101678.31;9779787;30;20036;-94
2022/01/06 22:24:11;;;;;;;27.75;11.35;;;;;;;-0.94;100.00;101152.91;9701140;30;20046;-91
2022/01/06 22:29:59;;;;;;;22.00;8.83;;;;;;;-4.94;100.00;100412.81;9699705;30;20052;-95
2022/01/06 22:35:09;;;;;;;;;;;;;;;;;;;;;
2022/01/06 22:40:49;;;;;;;27.70;10.40;;;;;;;1.51;100.00;101338.59;9736352;30;20104;-91
2022/01/06 22:46:23;;;;;;;;;;;;;;;;;;;;;
2022/01/06 22:51:55;;;;;;;21.73;9.38;;;;;;;-7.23;100.00;100061.78;9848446;30;20056;-91
2022/01/06 22:57:18;;;;;;;;;;;;;;;;;;;;;
2022/01/06 23:02:53;;;;;;;;;;;;;;;;;;;;;
2022/01/06 23:08:27;;;;;;;;;;;;;;;;;;;;;
2022/01/06 23:19:23;;;;;;;25.38;9.75;;;;;;;-3.81;100.00;100688.31;9846817;30;20502;-95
2022/01/06 23:24:41;;;;;;;19.30;7.80;;;;;;;-3.45;100.00;100592.81;9846044;30;20054;-90
2022/01/06 23:30:19;;;;;;;;;;;;;;;;;;;;;
2022/01/06 23:36:31;;;;;;;;;;;;;;;;;;;;;
2022/01/06 23:42:25;;;;;;;;;;;;;;;;;;;;;
2022/01/06 23:47:55;;;;;;;20.27;7.40;;;;;;;-6.07;100.00;100192.44;9837144;30;20059;-95
2022/01/06 23:53:35;;;;;;;;;;;;;;;;;;;;;
2022/01/06 23:59:09;;;;;;;;;;;;;;;;;;;;;
